sensor_id;sensor_type;location;lat;lon;timestamp;pressure;altitude;pressure_sealevel;temperature;humidity
8318;BME280;4196;48.926;8.964;2024-01-30T00:02:01;100459.31;;;-1.28;100.00
8318;BME280;4196;48.926;8.964;2024-01-30T00:04:48;100457.75;;;-1.26;100.00
8318;BME280;4196;48.926;8.964;2024-01-30T00:07:34;100448.75;;;-1.34;100.00
8318;BME280;4196;48.926;8.964;2024-01-30T00:10:21;100453.03;;;-1.33;100.00
8318;BME280;4196;48.926;8.964;2024-01-30T00:13:07;100432.47;;;-1.49;100.00
8318;BME280;4196;48.926;8.964;2024-01-30T00:15:54;100442.56;;;-1.51;100.00
8318;BME280;4196;48.926;8.964;2024-01-30T00:18:40;100436.25;;;-1.56;100.00
8318;BME280;4196;48.926;8.964;2024-01-30T00:21:27;100433.22;;;-1.63;100.00
8318;BME280;4196;48.926;8.964;2024-01-30T00:24:14;100457.66;;;-1.52;100.00
8318;BME280;4196;48.926;8.964;2024-01-30T00:27:00;100475.72;;;-1.36;100.00
8318;BME280;4196;48.926;8.964;2024-01-30T00:29:46;100479.72;;;-1.39;100.00
8318;BME280;4196;48.926;8.964;2024-01-30T00:32:33;100456.00;;;-1.52;100.00
8318;BME280;4196;48.926;8.964;2024-01-30T00:35:19;100445.19;;;-1.49;100.00
8318;BME280;4196;48.926;8.964;2024-01-30T00:38:08;100477.53;;;-1.47;100.00
8318;BME280;4196;48.926;8.964;2024-01-30T00:40:54;100418.28;;;-1.84;100.00
8318;BME280;4196;48.926;8.964;2024-01-30T00:43:41;100475.50;;;-1.39;100.00
8318;BME280;4196;48.926;8.964;2024-01-30T00:46:27;100478.84;;;-1.40;100.00
8318;BME280;4196;48.926;8.964;2024-01-30T00:49:14;100481.75;;;-1.47;100.00
8318;BME280;4196;48.926;8.964;2024-01-30T00:52:00;100442.75;;;-1.73;100.00
8318;BME280;4196;48.926;8.964;2024-01-30T00:54:47;100455.28;;;-1.62;100.00
8318;BME280;4196;48.926;8.964;2024-01-30T00:57:33;100468.75;;;-1.63;100.00
8318;BME280;4196;48.926;8.964;2024-01-30T01:00:20;100443.50;;;-1.74;100.00
8318;BME280;4196;48.926;8.964;2024-01-30T01:03:07;100459.84;;;-1.70;100.00
8318;BME280;4196;48.926;8.964;2024-01-30T01:05:53;100435.06;;;-1.86;100.00
8318;BME280;4196;48.926;8.964;2024-01-30T01:08:40;100471.88;;;-1.67;100.00
8318;BME280;4196;48.926;8.964;2024-01-30T01:11:26;100400.59;;;-2.07;100.00
8318;BME280;4196;48.926;8.964;2024-01-30T01:14:12;100401.59;;;-2.05;100.00
8318;BME280;4196;48.926;8.964;2024-01-30T01:16:59;100450.94;;;-1.77;100.00
8318;BME280;4196;48.926;8.964;2024-01-30T01:19:46;100426.34;;;-1.89;100.00
8318;BME280;4196;48.926;8.964;2024-01-30T01:22:33;100480.50;;;-1.65;100.00
8318;BME280;4196;48.926;8.964;2024-01-30T01:25:19;100467.44;;;-1.70;100.00
8318;BME280;4196;48.926;8.964;2024-01-30T01:28:06;100451.84;;;-1.88;100.00
8318;BME280;4196;48.926;8.964;2024-01-30T01:30:52;100464.34;;;-1.91;100.00
8318;BME280;4196;48.926;8.964;2024-01-30T01:33:39;100481.75;;;-1.84;100.00
8318;BME280;4196;48.926;8.964;2024-01-30T01:36:26;100480.66;;;-1.87;100.00
8318;BME280;4196;48.926;8.964;2024-01-30T01:39:12;100473.50;;;-1.93;100.00
8318;BME280;4196;48.926;8.964;2024-01-30T01:41:59;100457.19;;;-2.08;100.00
8318;BME280;4196;48.926;8.964;2024-01-30T01:44:45;100478.25;;;-1.98;100.00
8318;BME280;4196;48.926;8.964;2024-01-30T01:47:32;100455.63;;;-2.06;100.00
8318;BME280;4196;48.926;8.964;2024-01-30T01:50:20;100473.06;;;-1.99;100.00
8318;BME280;4196;48.926;8.964;2024-01-30T01:53:07;100473.44;;;-1.81;100.00
8318;BME280;4196;48.926;8.964;2024-01-30T01:55:54;100461.09;;;-1.88;100.00
8318;BME280;4196;48.926;8.964;2024-01-30T01:58:41;100473.91;;;-1.87;100.00
8318;BME280;4196;48.926;8.964;2024-01-30T02:01:31;100469.19;;;-1.94;100.00
8318;BME280;4196;48.926;8.964;2024-01-30T02:04:18;100436.47;;;-2.14;100.00
8318;BME280;4196;48.926;8.964;2024-01-30T02:07:05;100430.41;;;-2.16;100.00
8318;BME280;4196;48.926;8.964;2024-01-30T02:09:52;100442.84;;;-2.08;100.00
8318;BME280;4196;48.926;8.964;2024-01-30T02:12:39;100479.34;;;-1.94;100.00
8318;BME280;4196;48.926;8.964;2024-01-30T02:15:26;100479.22;;;-1.96;100.00
8318;BME280;4196;48.926;8.964;2024-01-30T02:18:13;100478.13;;;-1.99;100.00
8318;BME280;4196;48.926;8.964;2024-01-30T02:21:03;100484.78;;;-2.01;100.00
8318;BME280;4196;48.926;8.964;2024-01-30T02:23:50;100439.91;;;-2.26;100.00
8318;BME280;4196;48.926;8.964;2024-01-30T02:26:37;100478.38;;;-2.08;100.00
8318;BME280;4196;48.926;8.964;2024-01-30T02:29:23;100459.84;;;-2.19;100.00
8318;BME280;4196;48.926;8.964;2024-01-30T02:32:10;100477.28;;;-2.11;100.00
8318;BME280;4196;48.926;8.964;2024-01-30T02:34:56;100482.44;;;-1.98;100.00
8318;BME280;4196;48.926;8.964;2024-01-30T02:37:43;100476.16;;;-2.03;100.00
8318;BME280;4196;48.926;8.964;2024-01-30T02:40:29;100444.66;;;-2.30;100.00
8318;BME280;4196;48.926;8.964;2024-01-30T02:43:16;100478.38;;;-2.08;100.00
8318;BME280;4196;48.926;8.964;2024-01-30T02:46:02;100474.44;;;-2.16;100.00
8318;BME280;4196;48.926;8.964;2024-01-30T02:48:49;100452.38;;;-2.29;100.00
8318;BME280;4196;48.926;8.964;2024-01-30T02:51:35;100487.22;;;-2.14;100.00
8318;BME280;4196;48.926;8.964;2024-01-30T02:54:22;100432.97;;;-2.40;100.00
8318;BME280;4196;48.926;8.964;2024-01-30T02:57:09;100475.88;;;-2.20;100.00
8318;BME280;4196;48.926;8.964;2024-01-30T02:59:55;100471.34;;;-2.24;100.00
8318;BME280;4196;48.926;8.964;2024-01-30T03:02:41;100422.28;;;-2.48;100.00
8318;BME280;4196;48.926;8.964;2024-01-30T03:05:28;100454.03;;;-2.29;100.00
8318;BME280;4196;48.926;8.964;2024-01-30T03:08:14;100442.66;;;-2.23;100.00
8318;BME280;4196;48.926;8.964;2024-01-30T03:11:01;100420.06;;;-2.43;100.00
8318;BME280;4196;48.926;8.964;2024-01-30T03:13:47;100449.50;;;-2.22;100.00
8318;BME280;4196;48.926;8.964;2024-01-30T03:16:34;100455.34;;;-2.23;100.00
8318;BME280;4196;48.926;8.964;2024-01-30T03:19:20;100467.25;;;-2.22;100.00
8318;BME280;4196;48.926;8.964;2024-01-30T03:22:07;100441.66;;;-2.25;100.00
8318;BME280;4196;48.926;8.964;2024-01-30T03:24:54;100452.59;;;-2.26;100.00
8318;BME280;4196;48.926;8.964;2024-01-30T03:27:40;100462.72;;;-2.26;100.00
8318;BME280;4196;48.926;8.964;2024-01-30T03:30:27;100421.75;;;-2.55;100.00
8318;BME280;4196;48.926;8.964;2024-01-30T03:33:13;100471.69;;;-2.31;100.00
8318;BME280;4196;48.926;8.964;2024-01-30T03:36:04;100424.84;;;-2.59;100.00
8318;BME280;4196;48.926;8.964;2024-01-30T03:38:50;100457.25;;;-2.32;100.00
8318;BME280;4196;48.926;8.964;2024-01-30T03:41:37;100432.56;;;-2.46;100.00
8318;BME280;4196;48.926;8.964;2024-01-30T03:44:23;100457.91;;;-2.34;100.00
8318;BME280;4196;48.926;8.964;2024-01-30T03:47:10;100464.84;;;-2.32;100.00
8318;BME280;4196;48.926;8.964;2024-01-30T03:49:57;100455.06;;;-2.39;100.00
8318;BME280;4196;48.926;8.964;2024-01-30T03:52:43;100446.13;;;-2.46;100.00
8318;BME280;4196;48.926;8.964;2024-01-30T03:55:30;100474.44;;;-2.28;100.00
8318;BME280;4196;48.926;8.964;2024-01-30T03:58:16;100468.94;;;-2.34;100.00
8318;BME280;4196;48.926;8.964;2024-01-30T04:01:03;100460.22;;;-2.37;100.00
8318;BME280;4196;48.926;8.964;2024-01-30T04:03:50;100461.88;;;-2.38;100.00
8318;BME280;4196;48.926;8.964;2024-01-30T04:06:36;100444.88;;;-2.51;100.00
8318;BME280;4196;48.926;8.964;2024-01-30T04:09:23;100468.38;;;-2.41;100.00
8318;BME280;4196;48.926;8.964;2024-01-30T04:12:10;100456.81;;;-2.38;100.00
8318;BME280;4196;48.926;8.964;2024-01-30T04:14:56;100434.19;;;-2.58;100.00
8318;BME280;4196;48.926;8.964;2024-01-30T04:17:43;100464.44;;;-2.50;100.00
8318;BME280;4196;48.926;8.964;2024-01-30T04:20:29;100451.31;;;-2.68;100.00
8318;BME280;4196;48.926;8.964;2024-01-30T04:23:15;100430.03;;;-2.81;100.00
8318;BME280;4196;48.926;8.964;2024-01-30T04:26:02;100472.22;;;-2.58;100.00
8318;BME280;4196;48.926;8.964;2024-01-30T04:28:49;100408.75;;;-2.95;100.00
8318;BME280;4196;48.926;8.964;2024-01-30T04:31:36;100466.63;;;-2.42;100.00
8318;BME280;4196;48.926;8.964;2024-01-30T04:34:22;100418.03;;;-2.72;100.00
8318;BME280;4196;48.926;8.964;2024-01-30T04:37:10;100408.53;;;-2.75;100.00
8318;BME280;4196;48.926;8.964;2024-01-30T04:39:56;100430.13;;;-2.56;100.00
8318;BME280;4196;48.926;8.964;2024-01-30T04:42:43;100451.19;;;-2.57;100.00
8318;BME280;4196;48.926;8.964;2024-01-30T04:45:29;100459.78;;;-2.55;100.00
8318;BME280;4196;48.926;8.964;2024-01-30T04:48:16;100415.91;;;-2.78;100.00
8318;BME280;4196;48.926;8.964;2024-01-30T04:51:03;100421.88;;;-2.77;100.00
8318;BME280;4196;48.926;8.964;2024-01-30T04:53:50;100458.59;;;-2.60;100.00
8318;BME280;4196;48.926;8.964;2024-01-30T04:56:37;100469.16;;;-2.66;100.00
8318;BME280;4196;48.926;8.964;2024-01-30T04:59:24;100437.53;;;-2.83;100.00
8318;BME280;4196;48.926;8.964;2024-01-30T05:02:10;100476.88;;;-2.64;100.00
8318;BME280;4196;48.926;8.964;2024-01-30T05:04:56;100451.41;;;-2.78;100.00
8318;BME280;4196;48.926;8.964;2024-01-30T05:07:44;100486.47;;;-2.60;100.00
8318;BME280;4196;48.926;8.964;2024-01-30T05:10:30;100479.84;;;-2.58;100.00
8318;BME280;4196;48.926;8.964;2024-01-30T05:13:17;100485.47;;;-2.62;100.00
8318;BME280;4196;48.926;8.964;2024-01-30T05:16:03;100482.69;;;-2.65;100.00
8318;BME280;4196;48.926;8.964;2024-01-30T05:18:50;100437.84;;;-2.90;100.00
8318;BME280;4196;48.926;8.964;2024-01-30T05:21:37;100488.34;;;-2.46;100.00
8318;BME280;4196;48.926;8.964;2024-01-30T05:24:23;100457.13;;;-2.45;100.00
8318;BME280;4196;48.926;8.964;2024-01-30T05:27:12;100481.16;;;-2.40;100.00
8318;BME280;4196;48.926;8.964;2024-01-30T05:30:02;100435.00;;;-2.83;100.00
8318;BME280;4196;48.926;8.964;2024-01-30T05:32:49;100484.03;;;-2.59;100.00
8318;BME280;4196;48.926;8.964;2024-01-30T05:35:36;100468.28;;;-2.67;100.00
8318;BME280;4196;48.926;8.964;2024-01-30T05:38:22;100466.94;;;-2.73;100.00
8318;BME280;4196;48.926;8.964;2024-01-30T05:41:09;100484.03;;;-2.71;100.00
8318;BME280;4196;48.926;8.964;2024-01-30T05:43:55;100467.94;;;-2.83;100.00
8318;BME280;4196;48.926;8.964;2024-01-30T05:46:41;100434.06;;;-3.07;100.00
8318;BME280;4196;48.926;8.964;2024-01-30T05:49:28;100501.78;;;-2.71;100.00
8318;BME280;4196;48.926;8.964;2024-01-30T05:52:15;100466.94;;;-2.97;100.00
8318;BME280;4196;48.926;8.964;2024-01-30T05:55:02;100432.53;;;-3.17;100.00
8318;BME280;4196;48.926;8.964;2024-01-30T05:57:49;100507.50;;;-2.73;100.00
8318;BME280;4196;48.926;8.964;2024-01-30T06:00:37;100482.91;;;-2.86;100.00
8318;BME280;4196;48.926;8.964;2024-01-30T06:03:23;100502.56;;;-2.72;100.00
8318;BME280;4196;48.926;8.964;2024-01-30T06:06:10;100425.03;;;-3.15;100.00
8318;BME280;4196;48.926;8.964;2024-01-30T06:08:56;100487.22;;;-2.85;100.00
8318;BME280;4196;48.926;8.964;2024-01-30T06:11:43;100490.75;;;-2.83;100.00
8318;BME280;4196;48.926;8.964;2024-01-30T06:14:29;100516.53;;;-2.77;100.00
8318;BME280;4196;48.926;8.964;2024-01-30T06:17:16;100483.47;;;-2.90;100.00
8318;BME280;4196;48.926;8.964;2024-01-30T06:20:03;100473.09;;;-2.93;100.00
8318;BME280;4196;48.926;8.964;2024-01-30T06:22:50;100514.56;;;-2.69;100.00
8318;BME280;4196;48.926;8.964;2024-01-30T06:25:37;100505.09;;;-2.72;100.00
8318;BME280;4196;48.926;8.964;2024-01-30T06:28:23;100516.22;;;-2.70;100.00
8318;BME280;4196;48.926;8.964;2024-01-30T06:36:07;100464.28;;;-2.98;100.00
8318;BME280;4196;48.926;8.964;2024-01-30T06:38:53;100479.16;;;-2.91;100.00
8318;BME280;4196;48.926;8.964;2024-01-30T06:41:39;100481.25;;;-2.85;100.00
8318;BME280;4196;48.926;8.964;2024-01-30T06:44:26;100487.34;;;-2.83;100.00
8318;BME280;4196;48.926;8.964;2024-01-30T06:47:15;100471.34;;;-2.94;100.00
8318;BME280;4196;48.926;8.964;2024-01-30T06:50:02;100477.53;;;-2.67;100.00
8318;BME280;4196;48.926;8.964;2024-01-30T06:52:49;100499.16;;;-2.60;100.00
8318;BME280;4196;48.926;8.964;2024-01-30T06:55:36;100488.78;;;-2.75;100.00
8318;BME280;4196;48.926;8.964;2024-01-30T06:58:22;100484.13;;;-2.81;100.00
8318;BME280;4196;48.926;8.964;2024-01-30T07:01:09;100492.59;;;-2.80;100.00
8318;BME280;4196;48.926;8.964;2024-01-30T07:03:57;100483.56;;;-2.88;100.00
8318;BME280;4196;48.926;8.964;2024-01-30T07:06:44;100501.56;;;-2.74;100.00
8318;BME280;4196;48.926;8.964;2024-01-30T07:09:31;100464.06;;;-2.89;100.00
8318;BME280;4196;48.926;8.964;2024-01-30T07:12:17;100443.16;;;-2.75;100.00
8318;BME280;4196;48.926;8.964;2024-01-30T07:15:04;100494.50;;;-2.54;100.00
8318;BME280;4196;48.926;8.964;2024-01-30T07:17:53;100518.47;;;-2.39;100.00
8318;BME280;4196;48.926;8.964;2024-01-30T07:20:40;100481.19;;;-2.63;100.00
8318;BME280;4196;48.926;8.964;2024-01-30T07:23:32;100480.41;;;-2.62;100.00
8318;BME280;4196;48.926;8.964;2024-01-30T07:26:20;100491.19;;;-2.30;100.00
8318;BME280;4196;48.926;8.964;2024-01-30T07:29:06;100423.44;;;-2.79;100.00
8318;BME280;4196;48.926;8.964;2024-01-30T07:31:53;100460.56;;;-2.56;100.00
8318;BME280;4196;48.926;8.964;2024-01-30T07:34:39;100440.84;;;-2.60;100.00
8318;BME280;4196;48.926;8.964;2024-01-30T07:37:44;100444.78;;;-2.40;100.00
8318;BME280;4196;48.926;8.964;2024-01-30T07:40:30;100484.91;;;-2.23;100.00
8318;BME280;4196;48.926;8.964;2024-01-30T07:43:17;100520.81;;;-1.82;100.00
8318;BME280;4196;48.926;8.964;2024-01-30T07:46:04;100430.28;;;-2.18;100.00
8318;BME280;4196;48.926;8.964;2024-01-30T07:48:52;100523.03;;;-1.50;100.00
8318;BME280;4196;48.926;8.964;2024-01-30T07:51:41;100500.16;;;-1.75;100.00
8318;BME280;4196;48.926;8.964;2024-01-30T07:54:27;100521.28;;;-1.51;100.00
8318;BME280;4196;48.926;8.964;2024-01-30T07:57:14;100468.16;;;-1.73;100.00
8318;BME280;4196;48.926;8.964;2024-01-30T08:00:01;100517.31;;;-1.47;100.00
8318;BME280;4196;48.926;8.964;2024-01-30T08:02:52;100506.44;;;-1.44;100.00
8318;BME280;4196;48.926;8.964;2024-01-30T08:05:38;100504.75;;;-1.32;100.00
8318;BME280;4196;48.926;8.964;2024-01-30T08:08:25;100521.06;;;-1.04;100.00
8318;BME280;4196;48.926;8.964;2024-01-30T08:11:13;100534.81;;;-0.88;100.00
8318;BME280;4196;48.926;8.964;2024-01-30T08:13:59;100526.47;;;-0.99;100.00
8318;BME280;4196;48.926;8.964;2024-01-30T08:16:46;100488.97;;;-1.15;100.00
8318;BME280;4196;48.926;8.964;2024-01-30T08:19:33;100494.44;;;-0.84;100.00
8318;BME280;4196;48.926;8.964;2024-01-30T08:22:19;100495.34;;;-0.70;100.00
8318;BME280;4196;48.926;8.964;2024-01-30T08:25:06;100526.94;;;-0.53;100.00
8318;BME280;4196;48.926;8.964;2024-01-30T08:27:53;100504.63;;;-0.57;100.00
8318;BME280;4196;48.926;8.964;2024-01-30T08:30:39;100514.84;;;-0.44;100.00
8318;BME280;4196;48.926;8.964;2024-01-30T08:33:26;100497.50;;;-0.50;100.00
8318;BME280;4196;48.926;8.964;2024-01-30T08:36:13;100483.50;;;-0.43;100.00
8318;BME280;4196;48.926;8.964;2024-01-30T08:38:59;100514.44;;;-0.10;100.00
8318;BME280;4196;48.926;8.964;2024-01-30T08:41:50;100481.13;;;0.00;100.00
8318;BME280;4196;48.926;8.964;2024-01-30T08:44:36;100502.44;;;0.15;100.00
8318;BME280;4196;48.926;8.964;2024-01-30T08:47:22;100504.19;;;0.16;100.00
8318;BME280;4196;48.926;8.964;2024-01-30T08:50:09;100507.19;;;0.37;100.00
8318;BME280;4196;48.926;8.964;2024-01-30T08:52:56;100536.22;;;0.67;100.00
8318;BME280;4196;48.926;8.964;2024-01-30T08:55:44;100496.59;;;0.44;100.00
8318;BME280;4196;48.926;8.964;2024-01-30T08:58:33;100416.09;;;-0.08;100.00
8318;BME280;4196;48.926;8.964;2024-01-30T09:01:21;100535.78;;;0.75;100.00
8318;BME280;4196;48.926;8.964;2024-01-30T09:04:08;100540.16;;;1.05;100.00
8318;BME280;4196;48.926;8.964;2024-01-30T09:06:55;100463.78;;;0.64;100.00
8318;BME280;4196;48.926;8.964;2024-01-30T09:13:51;100511.31;;;1.21;100.00
8318;BME280;4196;48.926;8.964;2024-01-30T09:16:54;100523.72;;;1.59;100.00
8318;BME280;4196;48.926;8.964;2024-01-30T09:20:00;100542.09;;;1.83;100.00
8318;BME280;4196;48.926;8.964;2024-01-30T09:22:48;100482.16;;;1.62;100.00
8318;BME280;4196;48.926;8.964;2024-01-30T09:25:36;100519.75;;;2.10;100.00
8318;BME280;4196;48.926;8.964;2024-01-30T09:28:24;100540.28;;;2.43;100.00
8318;BME280;4196;48.926;8.964;2024-01-30T09:31:13;100495.31;;;1.99;100.00
8318;BME280;4196;48.926;8.964;2024-01-30T09:34:12;100519.25;;;2.32;100.00
8318;BME280;4196;48.926;8.964;2024-01-30T09:37:00;100544.28;;;2.71;100.00
8318;BME280;4196;48.926;8.964;2024-01-30T09:39:50;100542.38;;;2.99;100.00
8318;BME280;4196;48.926;8.964;2024-01-30T09:42:37;100490.13;;;2.61;100.00
8318;BME280;4196;48.926;8.964;2024-01-30T09:45:25;100473.47;;;2.53;100.00
8318;BME280;4196;48.926;8.964;2024-01-30T09:48:17;100489.50;;;2.83;100.00
8318;BME280;4196;48.926;8.964;2024-01-30T09:51:04;100527.94;;;3.18;100.00
8318;BME280;4196;48.926;8.964;2024-01-30T09:53:54;100410.19;;;2.49;99.84
8318;BME280;4196;48.926;8.964;2024-01-30T09:56:41;100530.00;;;3.25;99.41
8318;BME280;4196;48.926;8.964;2024-01-30T09:59:28;100513.72;;;3.06;100.00
8318;BME280;4196;48.926;8.964;2024-01-30T10:02:15;100503.09;;;2.99;100.00
8318;BME280;4196;48.926;8.964;2024-01-30T10:05:02;100530.28;;;3.31;100.00
8318;BME280;4196;48.926;8.964;2024-01-30T10:07:56;100505.28;;;3.25;100.00
8318;BME280;4196;48.926;8.964;2024-01-30T10:10:46;100539.00;;;3.69;99.40
8318;BME280;4196;48.926;8.964;2024-01-30T10:13:33;100472.97;;;3.45;97.67
8318;BME280;4196;48.926;8.964;2024-01-30T10:16:20;100475.63;;;3.47;97.61
8318;BME280;4196;48.926;8.964;2024-01-30T10:19:07;100546.03;;;4.08;96.91
8318;BME280;4196;48.926;8.964;2024-01-30T10:21:54;100487.13;;;3.73;93.71
8318;BME280;4196;48.926;8.964;2024-01-30T10:24:44;100403.31;;;3.52;92.93
8318;BME280;4196;48.926;8.964;2024-01-30T10:27:35;100502.06;;;4.19;94.10
8318;BME280;4196;48.926;8.964;2024-01-30T10:30:22;100440.13;;;3.72;92.27
8318;BME280;4196;48.926;8.964;2024-01-30T10:33:09;100493.19;;;4.30;93.94
8318;BME280;4196;48.926;8.964;2024-01-30T10:36:03;100477.75;;;4.48;90.76
8318;BME280;4196;48.926;8.964;2024-01-30T10:38:59;100496.72;;;4.71;90.97
8318;BME280;4196;48.926;8.964;2024-01-30T10:41:47;100410.06;;;4.25;91.56
8318;BME280;4196;48.926;8.964;2024-01-30T10:45:02;100529.34;;;5.12;91.80
8318;BME280;4196;48.926;8.964;2024-01-30T10:47:55;100495.75;;;5.07;88.36
8318;BME280;4196;48.926;8.964;2024-01-30T10:50:45;100512.13;;;5.30;86.73
8318;BME280;4196;48.926;8.964;2024-01-30T10:53:43;100515.06;;;5.40;85.82
8318;BME280;4196;48.926;8.964;2024-01-30T10:56:34;100468.94;;;5.22;86.38
8318;BME280;4196;48.926;8.964;2024-01-30T10:59:23;100500.78;;;5.46;84.18
8318;BME280;4196;48.926;8.964;2024-01-30T11:02:11;100481.50;;;5.56;84.68
8318;BME280;4196;48.926;8.964;2024-01-30T11:04:58;100479.41;;;5.47;84.43
8318;BME280;4196;48.926;8.964;2024-01-30T11:07:46;100462.56;;;5.33;85.40
8318;BME280;4196;48.926;8.964;2024-01-30T11:10:33;100518.56;;;5.63;86.83
8318;BME280;4196;48.926;8.964;2024-01-30T11:13:19;100448.16;;;5.37;85.51
8318;BME280;4196;48.926;8.964;2024-01-30T11:16:06;100446.41;;;5.56;82.67
8318;BME280;4196;48.926;8.964;2024-01-30T11:18:53;100504.44;;;5.93;83.46
8318;BME280;4196;48.926;8.964;2024-01-30T11:21:42;100472.09;;;5.56;83.78
8318;BME280;4196;48.926;8.964;2024-01-30T11:24:29;100493.47;;;5.78;87.18
8318;BME280;4196;48.926;8.964;2024-01-30T11:27:16;100528.03;;;5.85;89.05
8318;BME280;4196;48.926;8.964;2024-01-30T11:30:03;100492.00;;;5.83;87.66
8318;BME280;4196;48.926;8.964;2024-01-30T11:35:58;100455.22;;;6.07;85.49
8318;BME280;4196;48.926;8.964;2024-01-30T11:38:48;100478.13;;;6.23;83.35
8318;BME280;4196;48.926;8.964;2024-01-30T11:41:36;100469.13;;;6.34;83.98
8318;BME280;4196;48.926;8.964;2024-01-30T11:44:23;100491.41;;;6.58;82.28
8318;BME280;4196;48.926;8.964;2024-01-30T11:47:10;100468.09;;;6.53;82.93
8318;BME280;4196;48.926;8.964;2024-01-30T11:49:57;100463.44;;;6.67;81.26
8318;BME280;4196;48.926;8.964;2024-01-30T11:52:47;100469.59;;;6.70;81.57
8318;BME280;4196;48.926;8.964;2024-01-30T11:55:34;100462.94;;;6.77;82.99
8318;BME280;4196;48.926;8.964;2024-01-30T11:58:25;100465.00;;;6.87;83.83
8318;BME280;4196;48.926;8.964;2024-01-30T12:01:12;100495.22;;;7.17;84.81
8318;BME280;4196;48.926;8.964;2024-01-30T12:03:59;100490.16;;;7.20;84.15
8318;BME280;4196;48.926;8.964;2024-01-30T12:06:51;100479.13;;;7.24;82.56
8318;BME280;4196;48.926;8.964;2024-01-30T12:09:37;100468.94;;;7.27;83.41
8318;BME280;4196;48.926;8.964;2024-01-30T12:12:28;100468.72;;;7.21;83.24
8318;BME280;4196;48.926;8.964;2024-01-30T12:15:16;100476.56;;;7.24;83.96
8318;BME280;4196;48.926;8.964;2024-01-30T12:18:06;100429.38;;;6.99;84.02
8318;BME280;4196;48.926;8.964;2024-01-30T12:21:00;100452.97;;;7.12;82.71
8318;BME280;4196;48.926;8.964;2024-01-30T12:23:47;100438.19;;;7.06;82.78
8318;BME280;4196;48.926;8.964;2024-01-30T12:26:33;100463.41;;;7.42;81.47
8318;BME280;4196;48.926;8.964;2024-01-30T12:29:20;100468.94;;;7.53;82.41
8318;BME280;4196;48.926;8.964;2024-01-30T12:32:08;100454.13;;;8.03;77.45
8318;BME280;4196;48.926;8.964;2024-01-30T12:34:55;100436.78;;;7.97;77.62
8318;BME280;4196;48.926;8.964;2024-01-30T12:37:48;100465.84;;;8.20;77.07
8318;BME280;4196;48.926;8.964;2024-01-30T12:40:34;100440.66;;;8.11;76.71
8318;BME280;4196;48.926;8.964;2024-01-30T12:43:24;100455.97;;;8.35;76.71
8318;BME280;4196;48.926;8.964;2024-01-30T12:46:29;100418.66;;;8.24;76.07
8318;BME280;4196;48.926;8.964;2024-01-30T12:49:16;100437.63;;;8.55;75.83
8318;BME280;4196;48.926;8.964;2024-01-30T12:52:03;100350.47;;;8.16;75.07
8318;BME280;4196;48.926;8.964;2024-01-30T12:54:50;100451.72;;;9.32;72.22
8318;BME280;4196;48.926;8.964;2024-01-30T12:57:37;100421.41;;;9.27;71.05
8318;BME280;4196;48.926;8.964;2024-01-30T13:00:25;100423.97;;;9.25;72.84
8318;BME280;4196;48.926;8.964;2024-01-30T13:03:12;100451.34;;;9.53;72.61
8318;BME280;4196;48.926;8.964;2024-01-30T13:05:58;100423.59;;;9.46;71.18
8318;BME280;4196;48.926;8.964;2024-01-30T13:08:45;100438.22;;;9.44;71.84
8318;BME280;4196;48.926;8.964;2024-01-30T13:11:33;100309.78;;;8.69;72.21
8318;BME280;4196;48.926;8.964;2024-01-30T13:14:20;100436.66;;;9.88;70.62
8318;BME280;4196;48.926;8.964;2024-01-30T13:17:07;100415.88;;;9.85;70.59
8318;BME280;4196;48.926;8.964;2024-01-30T13:19:53;100412.09;;;9.70;70.08
8318;BME280;4196;48.926;8.964;2024-01-30T13:22:47;100425.44;;;9.89;71.24
8318;BME280;4196;48.926;8.964;2024-01-30T13:25:36;100411.69;;;9.90;70.91
8318;BME280;4196;48.926;8.964;2024-01-30T13:28:24;100427.00;;;9.81;71.95
8318;BME280;4196;48.926;8.964;2024-01-30T13:31:13;100425.66;;;9.99;71.36
8318;BME280;4196;48.926;8.964;2024-01-30T13:34:00;100414.28;;;9.90;70.43
8318;BME280;4196;48.926;8.964;2024-01-30T13:36:50;100408.66;;;10.11;68.23
8318;BME280;4196;48.926;8.964;2024-01-30T13:39:45;100373.84;;;9.96;68.11
8318;BME280;4196;48.926;8.964;2024-01-30T13:42:31;100439.41;;;10.35;66.96
8318;BME280;4196;48.926;8.964;2024-01-30T13:45:20;100422.91;;;10.30;67.24
8318;BME280;4196;48.926;8.964;2024-01-30T13:48:10;100402.31;;;9.96;67.17
8318;BME280;4196;48.926;8.964;2024-01-30T13:50:59;100428.97;;;9.91;68.44
8318;BME280;4196;48.926;8.964;2024-01-30T13:53:48;100399.81;;;9.61;69.32
8318;BME280;4196;48.926;8.964;2024-01-30T13:56:39;100387.78;;;9.61;72.06
8318;BME280;4196;48.926;8.964;2024-01-30T13:59:29;100425.44;;;9.88;72.79
8318;BME280;4196;48.926;8.964;2024-01-30T14:02:16;100249.56;;;9.08;72.88
8318;BME280;4196;48.926;8.964;2024-01-30T14:05:03;100359.16;;;9.54;72.45
8318;BME280;4196;48.926;8.964;2024-01-30T14:07:52;100402.47;;;9.64;74.15
8318;BME280;4196;48.926;8.964;2024-01-30T14:10:38;100402.69;;;9.73;73.46
8318;BME280;4196;48.926;8.964;2024-01-30T14:13:25;100435.16;;;10.00;71.56
8318;BME280;4196;48.926;8.964;2024-01-30T14:16:12;100411.41;;;9.78;71.69
8318;BME280;4196;48.926;8.964;2024-01-30T14:18:58;100451.13;;;9.80;72.89
8318;BME280;4196;48.926;8.964;2024-01-30T14:21:45;100415.19;;;9.55;74.71
8318;BME280;4196;48.926;8.964;2024-01-30T14:24:32;100383.31;;;9.56;73.33
8318;BME280;4196;48.926;8.964;2024-01-30T14:27:18;100442.78;;;9.93;72.84
8318;BME280;4196;48.926;8.964;2024-01-30T14:30:05;100434.00;;;9.85;72.78
8318;BME280;4196;48.926;8.964;2024-01-30T14:32:51;100409.34;;;9.62;72.31
8318;BME280;4196;48.926;8.964;2024-01-30T14:35:38;100444.25;;;9.82;72.62
8318;BME280;4196;48.926;8.964;2024-01-30T14:38:25;100423.06;;;9.61;71.57
8318;BME280;4196;48.926;8.964;2024-01-30T14:41:11;100452.47;;;9.64;72.67
8318;BME280;4196;48.926;8.964;2024-01-30T14:43:58;100452.88;;;9.45;74.83
8318;BME280;4196;48.926;8.964;2024-01-30T14:46:44;100451.75;;;9.34;77.76
8318;BME280;4196;48.926;8.964;2024-01-30T14:49:31;100433.09;;;9.12;78.94
8318;BME280;4196;48.926;8.964;2024-01-30T14:52:18;100455.41;;;9.09;79.46
8318;BME280;4196;48.926;8.964;2024-01-30T14:55:05;100443.53;;;8.82;81.35
8318;BME280;4196;48.926;8.964;2024-01-30T14:57:51;100453.44;;;8.67;81.32
8318;BME280;4196;48.926;8.964;2024-01-30T15:00:38;100426.06;;;8.42;83.63
8318;BME280;4196;48.926;8.964;2024-01-30T15:03:27;100441.44;;;8.37;85.45
8318;BME280;4196;48.926;8.964;2024-01-30T15:06:15;100430.88;;;8.30;84.89
8318;BME280;4196;48.926;8.964;2024-01-30T15:09:01;100433.56;;;8.34;83.86